sensor_id;sensor_type;location;lat;lon;timestamp;pressure;altitude;pressure_sealevel;temperature;humidity
15272;BME280;7737;51.578;7.268;2022-07-04T00:01:06;101366.34;;;16.31;100.00
15272;BME280;7737;51.578;7.268;2022-07-04T00:03:32;101367.31;;;16.30;100.00
15272;BME280;7737;51.578;7.268;2022-07-04T00:05:59;101366.16;;;16.06;100.00
15272;BME280;7737;51.578;7.268;2022-07-04T00:08:25;101376.22;;;15.59;100.00
15272;BME280;7737;51.578;7.268;2022-07-04T00:10:52;101371.31;;;15.95;100.00
15272;BME280;7737;51.578;7.268;2022-07-04T00:13:20;101372.84;;;15.99;100.00
15272;BME280;7737;51.578;7.268;2022-07-04T00:15:46;101386.78;;;15.31;100.00
15272;BME280;7737;51.578;7.268;2022-07-04T00:18:13;101398.34;;;14.86;100.00
15272;BME280;7737;51.578;7.268;2022-07-04T00:20:39;101394.66;;;15.34;100.00
15272;BME280;7737;51.578;7.268;2022-07-04T00:23:06;101393.88;;;15.47;100.00
15272;BME280;7737;51.578;7.268;2022-07-04T00:25:32;101390.75;;;15.55;100.00
15272;BME280;7737;51.578;7.268;2022-07-04T00:27:59;101383.22;;;15.61;100.00
15272;BME280;7737;51.578;7.268;2022-07-04T00:30:26;101373.44;;;15.60;100.00
15272;BME280;7737;51.578;7.268;2022-07-04T00:32:53;101369.00;;;15.75;100.00
15272;BME280;7737;51.578;7.268;2022-07-04T00:35:20;101370.69;;;15.76;100.00
15272;BME280;7737;51.578;7.268;2022-07-04T00:37:46;101366.75;;;15.67;100.00
15272;BME280;7737;51.578;7.268;2022-07-04T00:40:13;101359.84;;;15.63;100.00
15272;BME280;7737;51.578;7.268;2022-07-04T00:42:39;101348.59;;;15.72;100.00
15272;BME280;7737;51.578;7.268;2022-07-04T00:45:07;101352.09;;;15.59;100.00
15272;BME280;7737;51.578;7.268;2022-07-04T00:47:35;101360.91;;;15.61;100.00
15272;BME280;7737;51.578;7.268;2022-07-04T00:50:02;101355.56;;;15.61;100.00
15272;BME280;7737;51.578;7.268;2022-07-04T00:52:28;101361.09;;;15.58;100.00
15272;BME280;7737;51.578;7.268;2022-07-04T00:54:55;101364.50;;;15.46;100.00
15272;BME280;7737;51.578;7.268;2022-07-04T00:57:22;101368.53;;;15.53;100.00
15272;BME280;7737;51.578;7.268;2022-07-04T00:59:48;101355.91;;;15.55;100.00
15272;BME280;7737;51.578;7.268;2022-07-04T01:02:15;101364.72;;;15.57;100.00
15272;BME280;7737;51.578;7.268;2022-07-04T01:04:43;101356.31;;;15.63;100.00
15272;BME280;7737;51.578;7.268;2022-07-04T01:07:11;101351.06;;;15.61;100.00
15272;BME280;7737;51.578;7.268;2022-07-04T01:09:37;101353.41;;;15.52;100.00
15272;BME280;7737;51.578;7.268;2022-07-04T01:12:05;101356.78;;;15.55;100.00
15272;BME280;7737;51.578;7.268;2022-07-04T01:14:31;101358.88;;;15.50;100.00
15272;BME280;7737;51.578;7.268;2022-07-04T01:16:58;101352.47;;;15.53;100.00
15272;BME280;7737;51.578;7.268;2022-07-04T01:19:24;101358.59;;;15.55;100.00
15272;BME280;7737;51.578;7.268;2022-07-04T01:21:52;101355.03;;;15.54;100.00
15272;BME280;7737;51.578;7.268;2022-07-04T01:24:19;101353.63;;;15.49;100.00
15272;BME280;7737;51.578;7.268;2022-07-04T01:26:45;101358.09;;;15.48;100.00
15272;BME280;7737;51.578;7.268;2022-07-04T01:29:12;101353.41;;;15.52;100.00
15272;BME280;7737;51.578;7.268;2022-07-04T01:31:38;101355.16;;;15.37;100.00
15272;BME280;7737;51.578;7.268;2022-07-04T01:34:05;101353.34;;;15.38;100.00
15272;BME280;7737;51.578;7.268;2022-07-04T01:36:31;101352.38;;;15.39;100.00
15272;BME280;7737;51.578;7.268;2022-07-04T01:39:01;101361.75;;;15.32;100.00
15272;BME280;7737;51.578;7.268;2022-07-04T01:41:32;101351.78;;;15.34;100.00
15272;BME280;7737;51.578;7.268;2022-07-04T01:43:59;101349.22;;;15.32;100.00
15272;BME280;7737;51.578;7.268;2022-07-04T01:46:26;101350.25;;;15.30;100.00
15272;BME280;7737;51.578;7.268;2022-07-04T01:48:52;101356.66;;;15.27;100.00
15272;BME280;7737;51.578;7.268;2022-07-04T01:51:18;101353.72;;;15.32;100.00
15272;BME280;7737;51.578;7.268;2022-07-04T01:53:45;101351.72;;;15.35;100.00
15272;BME280;7737;51.578;7.268;2022-07-04T01:56:13;101353.53;;;15.35;100.00
15272;BME280;7737;51.578;7.268;2022-07-04T01:58:39;101352.13;;;15.27;100.00
15272;BME280;7737;51.578;7.268;2022-07-04T02:01:06;101357.97;;;15.04;100.00
15272;BME280;7737;51.578;7.268;2022-07-04T02:03:49;101362.81;;;15.13;100.00
15272;BME280;7737;51.578;7.268;2022-07-04T02:06:16;101362.53;;;15.18;100.00
15272;BME280;7737;51.578;7.268;2022-07-04T02:08:42;101367.91;;;15.18;100.00
15272;BME280;7737;51.578;7.268;2022-07-04T02:11:37;101363.94;;;15.09;100.00
15272;BME280;7737;51.578;7.268;2022-07-04T02:14:21;101375.84;;;15.04;100.00
15272;BME280;7737;51.578;7.268;2022-07-04T02:16:47;101371.75;;;14.98;100.00
15272;BME280;7737;51.578;7.268;2022-07-04T02:19:14;101372.59;;;14.99;100.00
15272;BME280;7737;51.578;7.268;2022-07-04T02:21:41;101371.13;;;14.93;100.00
15272;BME280;7737;51.578;7.268;2022-07-04T02:24:07;101369.56;;;15.05;100.00
15272;BME280;7737;51.578;7.268;2022-07-04T02:26:34;101371.19;;;15.07;100.00
15272;BME280;7737;51.578;7.268;2022-07-04T02:29:02;101372.41;;;15.02;100.00
15272;BME280;7737;51.578;7.268;2022-07-04T02:31:28;101374.16;;;15.03;100.00
15272;BME280;7737;51.578;7.268;2022-07-04T02:33:55;101372.34;;;15.03;100.00
15272;BME280;7737;51.578;7.268;2022-07-04T02:36:21;101367.16;;;15.00;100.00
15272;BME280;7737;51.578;7.268;2022-07-04T02:38:48;101367.78;;;14.90;100.00
15272;BME280;7737;51.578;7.268;2022-07-04T02:41:14;101381.41;;;14.85;100.00
15272;BME280;7737;51.578;7.268;2022-07-04T02:43:40;101384.88;;;14.87;100.00
15272;BME280;7737;51.578;7.268;2022-07-04T02:46:08;101388.81;;;14.80;100.00
15272;BME280;7737;51.578;7.268;2022-07-04T02:48:35;101385.91;;;14.69;100.00
15272;BME280;7737;51.578;7.268;2022-07-04T02:51:01;101392.97;;;14.70;100.00
15272;BME280;7737;51.578;7.268;2022-07-04T02:53:27;101399.38;;;14.68;100.00
15272;BME280;7737;51.578;7.268;2022-07-04T02:55:54;101401.53;;;14.61;100.00
15272;BME280;7737;51.578;7.268;2022-07-04T02:58:20;101416.00;;;14.57;100.00
15272;BME280;7737;51.578;7.268;2022-07-04T03:00:47;101411.84;;;14.51;100.00
15272;BME280;7737;51.578;7.268;2022-07-04T03:03:14;101409.97;;;14.53;100.00
15272;BME280;7737;51.578;7.268;2022-07-04T03:05:41;101421.19;;;14.60;100.00
15272;BME280;7737;51.578;7.268;2022-07-04T03:08:07;101410.06;;;14.52;100.00
15272;BME280;7737;51.578;7.268;2022-07-04T03:10:34;101410.22;;;14.49;100.00
15272;BME280;7737;51.578;7.268;2022-07-04T03:13:00;101417.16;;;14.53;100.00
15272;BME280;7737;51.578;7.268;2022-07-04T03:15:27;101413.16;;;14.44;100.00
15272;BME280;7737;51.578;7.268;2022-07-04T03:17:53;101420.31;;;14.44;100.00
15272;BME280;7737;51.578;7.268;2022-07-04T03:20:21;101428.84;;;14.35;100.00
15272;BME280;7737;51.578;7.268;2022-07-04T03:22:47;101439.84;;;14.29;100.00
15272;BME280;7737;51.578;7.268;2022-07-04T03:25:14;101446.34;;;14.40;100.00
15272;BME280;7737;51.578;7.268;2022-07-04T03:27:40;101437.13;;;14.46;100.00
15272;BME280;7737;51.578;7.268;2022-07-04T03:30:07;101431.09;;;14.42;100.00
15272;BME280;7737;51.578;7.268;2022-07-04T03:32:34;101435.75;;;14.39;100.00
15272;BME280;7737;51.578;7.268;2022-07-04T03:35:00;101444.03;;;14.34;100.00
15272;BME280;7737;51.578;7.268;2022-07-04T03:37:28;101448.75;;;14.12;100.00
15272;BME280;7737;51.578;7.268;2022-07-04T03:39:55;101454.56;;;13.86;100.00
15272;BME280;7737;51.578;7.268;2022-07-04T03:42:21;101460.16;;;14.16;100.00
15272;BME280;7737;51.578;7.268;2022-07-04T03:44:48;101460.00;;;14.01;100.00
15272;BME280;7737;51.578;7.268;2022-07-04T03:47:14;101463.91;;;14.12;100.00
15272;BME280;7737;51.578;7.268;2022-07-04T03:49:41;101462.03;;;14.14;100.00
15272;BME280;7737;51.578;7.268;2022-07-04T03:52:07;101462.81;;;13.98;100.00
15272;BME280;7737;51.578;7.268;2022-07-04T03:54:35;101465.09;;;14.06;100.00
15272;BME280;7737;51.578;7.268;2022-07-04T03:57:02;101460.94;;;14.18;100.00
15272;BME280;7737;51.578;7.268;2022-07-04T03:59:29;101456.34;;;14.20;100.00
15272;BME280;7737;51.578;7.268;2022-07-04T04:01:55;101463.13;;;14.27;100.00
15272;BME280;7737;51.578;7.268;2022-07-04T04:04:22;101456.19;;;14.23;100.00
15272;BME280;7737;51.578;7.268;2022-07-04T04:07:06;101458.97;;;14.21;100.00
15272;BME280;7737;51.578;7.268;2022-07-04T04:09:32;101464.06;;;14.26;100.00
15272;BME280;7737;51.578;7.268;2022-07-04T04:12:00;101463.75;;;14.15;100.00
15272;BME280;7737;51.578;7.268;2022-07-04T04:14:27;101463.28;;;14.24;100.00
15272;BME280;7737;51.578;7.268;2022-07-04T04:16:53;101464.53;;;14.17;100.00
15272;BME280;7737;51.578;7.268;2022-07-04T04:19:20;101468.63;;;14.24;100.00
15272;BME280;7737;51.578;7.268;2022-07-04T04:21:47;101477.16;;;14.32;100.00
15272;BME280;7737;51.578;7.268;2022-07-04T04:24:13;101479.81;;;14.32;100.00
15272;BME280;7737;51.578;7.268;2022-07-04T04:26:40;101478.00;;;14.32;100.00
15272;BME280;7737;51.578;7.268;2022-07-04T04:29:08;101482.16;;;14.38;100.00
15272;BME280;7737;51.578;7.268;2022-07-04T04:31:34;101484.22;;;14.33;100.00
15272;BME280;7737;51.578;7.268;2022-07-04T04:34:01;101490.53;;;14.32;100.00
15272;BME280;7737;51.578;7.268;2022-07-04T04:36:28;101491.34;;;14.49;100.00
15272;BME280;7737;51.578;7.268;2022-07-04T04:38:54;101495.78;;;14.50;100.00
15272;BME280;7737;51.578;7.268;2022-07-04T04:41:21;101480.56;;;14.51;100.00
15272;BME280;7737;51.578;7.268;2022-07-04T04:43:47;101482.66;;;14.61;100.00
15272;BME280;7737;51.578;7.268;2022-07-04T04:46:15;101482.59;;;14.63;100.00
15272;BME280;7737;51.578;7.268;2022-07-04T04:48:42;101493.13;;;14.66;100.00
15272;BME280;7737;51.578;7.268;2022-07-04T04:51:08;101491.22;;;14.68;100.00
15272;BME280;7737;51.578;7.268;2022-07-04T04:53:35;101486.81;;;14.34;100.00
15272;BME280;7737;51.578;7.268;2022-07-04T04:56:02;101475.47;;;14.79;100.00
15272;BME280;7737;51.578;7.268;2022-07-04T04:58:28;101470.34;;;15.68;100.00
15272;BME280;7737;51.578;7.268;2022-07-04T05:00:55;101467.25;;;16.34;100.00
15272;BME280;7737;51.578;7.268;2022-07-04T05:03:23;101452.13;;;16.47;100.00
15272;BME280;7737;51.578;7.268;2022-07-04T05:05:49;101454.91;;;16.88;100.00
15272;BME280;7737;51.578;7.268;2022-07-04T05:08:16;101446.97;;;16.86;100.00
15272;BME280;7737;51.578;7.268;2022-07-04T05:10:43;101444.88;;;17.45;100.00
15272;BME280;7737;51.578;7.268;2022-07-04T05:13:09;101440.00;;;17.37;100.00
15272;BME280;7737;51.578;7.268;2022-07-04T05:15:36;101445.00;;;17.43;100.00
15272;BME280;7737;51.578;7.268;2022-07-04T05:18:02;101444.44;;;17.38;100.00
15272;BME280;7737;51.578;7.268;2022-07-04T05:20:30;101446.72;;;17.18;100.00
15272;BME280;7737;51.578;7.268;2022-07-04T05:22:57;101449.09;;;17.22;100.00
15272;BME280;7737;51.578;7.268;2022-07-04T05:25:24;101452.47;;;17.52;100.00
15272;BME280;7737;51.578;7.268;2022-07-04T05:27:51;101446.53;;;17.07;100.00
15272;BME280;7737;51.578;7.268;2022-07-04T05:30:17;101455.00;;;17.00;100.00
15272;BME280;7737;51.578;7.268;2022-07-04T05:32:44;101455.97;;;17.26;100.00
15272;BME280;7737;51.578;7.268;2022-07-04T05:35:10;101457.88;;;16.97;100.00
15272;BME280;7737;51.578;7.268;2022-07-04T05:37:38;101454.59;;;17.07;100.00
15272;BME280;7737;51.578;7.268;2022-07-04T05:40:05;101452.41;;;16.99;100.00
15272;BME280;7737;51.578;7.268;2022-07-04T05:42:33;101452.41;;;16.99;100.00
15272;BME280;7737;51.578;7.268;2022-07-04T05:45:00;101455.13;;;16.85;100.00
15272;BME280;7737;51.578;7.268;2022-07-04T05:47:26;101454.91;;;16.88;100.00
15272;BME280;7737;51.578;7.268;2022-07-04T05:49:53;101458.09;;;17.21;100.00
15272;BME280;7737;51.578;7.268;2022-07-04T05:52:19;101453.44;;;17.37;100.00
15272;BME280;7737;51.578;7.268;2022-07-04T05:54:47;101448.28;;;17.34;100.00
15272;BME280;7737;51.578;7.268;2022-07-04T05:57:14;101457.31;;;17.33;100.00
15272;BME280;7737;51.578;7.268;2022-07-04T05:59:41;101456.13;;;17.37;100.00
15272;BME280;7737;51.578;7.268;2022-07-04T06:02:07;101450.22;;;17.32;100.00
15272;BME280;7737;51.578;7.268;2022-07-04T06:04:33;101454.94;;;17.29;100.00
15272;BME280;7737;51.578;7.268;2022-07-04T06:07:00;101456.44;;;17.33;100.00
15272;BME280;7737;51.578;7.268;2022-07-04T06:09:26;101447.88;;;17.40;100.00
15272;BME280;7737;51.578;7.268;2022-07-04T06:11:54;101440.19;;;17.34;100.00
15272;BME280;7737;51.578;7.268;2022-07-04T06:14:21;101446.81;;;17.43;100.00
15272;BME280;7737;51.578;7.268;2022-07-04T06:16:47;101435.63;;;17.36;100.00
15272;BME280;7737;51.578;7.268;2022-07-04T06:19:13;101435.19;;;17.42;100.00
15272;BME280;7737;51.578;7.268;2022-07-04T06:21:40;101437.66;;;17.59;100.00
15272;BME280;7737;51.578;7.268;2022-07-04T06:24:06;101433.28;;;17.44;100.00
15272;BME280;7737;51.578;7.268;2022-07-04T06:26:33;101432.47;;;17.56;100.00
15272;BME280;7737;51.578;7.268;2022-07-04T06:29:01;101439.03;;;17.92;100.00
15272;BME280;7737;51.578;7.268;2022-07-04T06:31:27;101439.84;;;17.80;100.00
15272;BME280;7737;51.578;7.268;2022-07-04T06:33:54;101428.59;;;18.00;100.00
15272;BME280;7737;51.578;7.268;2022-07-04T06:36:38;101433.53;;;18.06;100.00
15272;BME280;7737;51.578;7.268;2022-07-04T06:39:05;101428.47;;;18.01;100.00
15272;BME280;7737;51.578;7.268;2022-07-04T06:41:31;101426.34;;;18.19;100.00
15272;BME280;7737;51.578;7.268;2022-07-04T06:43:57;101425.28;;;18.34;100.00
15272;BME280;7737;51.578;7.268;2022-07-04T06:46:26;101417.28;;;18.33;100.00
15272;BME280;7737;51.578;7.268;2022-07-04T06:48:52;101423.34;;;18.36;100.00
15272;BME280;7737;51.578;7.268;2022-07-04T06:51:19;101419.38;;;18.29;100.00
15272;BME280;7737;51.578;7.268;2022-07-04T06:53:45;101414.31;;;18.37;100.00
15272;BME280;7737;51.578;7.268;2022-07-04T06:56:12;101418.84;;;18.49;100.00
15272;BME280;7737;51.578;7.268;2022-07-04T06:58:38;101413.22;;;18.65;100.00
15272;BME280;7737;51.578;7.268;2022-07-04T07:01:04;101407.63;;;18.55;100.00
15272;BME280;7737;51.578;7.268;2022-07-04T07:03:32;101410.75;;;18.49;100.00
15272;BME280;7737;51.578;7.268;2022-07-04T07:05:59;101399.56;;;18.55;100.00
15272;BME280;7737;51.578;7.268;2022-07-04T07:08:27;101393.81;;;18.60;100.00
15272;BME280;7737;51.578;7.268;2022-07-04T07:10:53;101391.06;;;18.85;100.00
15272;BME280;7737;51.578;7.268;2022-07-04T07:13:20;101401.00;;;18.84;100.00
15272;BME280;7737;51.578;7.268;2022-07-04T07:15:46;101386.97;;;18.92;100.00
15272;BME280;7737;51.578;7.268;2022-07-04T07:18:14;101386.44;;;18.74;100.00
15272;BME280;7737;51.578;7.268;2022-07-04T07:20:42;101371.13;;;18.88;100.00
15272;BME280;7737;51.578;7.268;2022-07-04T07:23:09;101363.09;;;18.99;100.00
15272;BME280;7737;51.578;7.268;2022-07-04T07:25:35;101358.34;;;19.26;100.00
15272;BME280;7737;51.578;7.268;2022-07-04T07:28:02;101359.44;;;19.00;100.00
15272;BME280;7737;51.578;7.268;2022-07-04T07:30:28;101364.84;;;19.00;99.40
15272;BME280;7737;51.578;7.268;2022-07-04T07:32:55;101359.38;;;19.12;98.44
15272;BME280;7737;51.578;7.268;2022-07-04T07:35:21;101362.28;;;19.46;98.73
15272;BME280;7737;51.578;7.268;2022-07-04T07:37:49;101356.06;;;19.67;97.15
15272;BME280;7737;51.578;7.268;2022-07-04T07:40:16;101345.13;;;19.58;96.36
15272;BME280;7737;51.578;7.268;2022-07-04T07:42:42;101354.78;;;19.49;95.63
15272;BME280;7737;51.578;7.268;2022-07-04T07:45:09;101353.19;;;19.47;95.53
15272;BME280;7737;51.578;7.268;2022-07-04T07:47:36;101369.19;;;19.61;96.41
15272;BME280;7737;51.578;7.268;2022-07-04T07:50:03;101365.47;;;19.51;94.79
15272;BME280;7737;51.578;7.268;2022-07-04T07:52:30;101351.22;;;19.49;93.43
15272;BME280;7737;51.578;7.268;2022-07-04T07:54:58;101342.53;;;19.45;92.53
15272;BME280;7737;51.578;7.268;2022-07-04T07:57:24;101339.94;;;19.89;91.54
15272;BME280;7737;51.578;7.268;2022-07-04T07:59:51;101339.81;;;19.80;90.98
15272;BME280;7737;51.578;7.268;2022-07-04T08:02:17;101353.28;;;19.69;92.56
15272;BME280;7737;51.578;7.268;2022-07-04T08:04:44;101364.69;;;19.72;93.54
15272;BME280;7737;51.578;7.268;2022-07-04T08:07:10;101358.97;;;19.88;93.76
15272;BME280;7737;51.578;7.268;2022-07-04T08:09:38;101354.47;;;20.22;92.50
15272;BME280;7737;51.578;7.268;2022-07-04T08:12:07;101350.50;;;19.92;89.35
15272;BME280;7737;51.578;7.268;2022-07-04T08:14:34;101341.66;;;19.90;88.70
15272;BME280;7737;51.578;7.268;2022-07-04T08:17:02;101344.03;;;20.06;89.34
15272;BME280;7737;51.578;7.268;2022-07-04T08:19:30;101337.78;;;20.17;88.08
15272;BME280;7737;51.578;7.268;2022-07-04T08:21:57;101332.44;;;19.82;87.36
15272;BME280;7737;51.578;7.268;2022-07-04T08:24:23;101335.69;;;20.09;87.11
15272;BME280;7737;51.578;7.268;2022-07-04T08:26:49;101323.03;;;20.21;86.34
15272;BME280;7737;51.578;7.268;2022-07-04T08:29:18;101325.38;;;20.03;84.97
15272;BME280;7737;51.578;7.268;2022-07-04T08:31:45;101310.88;;;20.15;85.28
15272;BME280;7737;51.578;7.268;2022-07-04T08:34:12;101314.72;;;20.35;85.08
15272;BME280;7737;51.578;7.268;2022-07-04T08:36:39;101308.56;;;20.44;83.98
15272;BME280;7737;51.578;7.268;2022-07-04T08:39:05;101302.91;;;20.47;82.92
15272;BME280;7737;51.578;7.268;2022-07-04T08:41:36;101309.81;;;20.40;83.59
15272;BME280;7737;51.578;7.268;2022-07-04T08:44:04;101306.56;;;20.68;82.93
15272;BME280;7737;51.578;7.268;2022-07-04T08:46:35;101298.84;;;20.63;82.07
15272;BME280;7737;51.578;7.268;2022-07-04T08:49:10;101315.28;;;20.60;82.64
15272;BME280;7737;51.578;7.268;2022-07-04T08:51:44;101307.63;;;20.88;82.06
15272;BME280;7737;51.578;7.268;2022-07-04T08:54:13;101312.38;;;20.95;81.04
15272;BME280;7737;51.578;7.268;2022-07-04T08:56:58;101299.44;;;20.78;79.59
15272;BME280;7737;51.578;7.268;2022-07-04T08:59:42;101303.81;;;20.79;79.46
15272;BME280;7737;51.578;7.268;2022-07-04T09:02:16;101296.56;;;20.91;78.60
15272;BME280;7737;51.578;7.268;2022-07-04T09:04:43;101295.50;;;20.71;78.29
15272;BME280;7737;51.578;7.268;2022-07-04T09:07:11;101302.19;;;21.10;79.27
15272;BME280;7737;51.578;7.268;2022-07-04T09:09:39;101292.88;;;21.23;78.31
15272;BME280;7737;51.578;7.268;2022-07-04T09:12:06;101301.75;;;21.26;78.49
15272;BME280;7737;51.578;7.268;2022-07-04T09:14:33;101286.69;;;21.01;75.77
15272;BME280;7737;51.578;7.268;2022-07-04T09:16:59;101287.66;;;21.32;75.78
15272;BME280;7737;51.578;7.268;2022-07-04T09:19:27;101275.72;;;21.13;75.58
15272;BME280;7737;51.578;7.268;2022-07-04T09:21:53;101265.63;;;21.15;74.35
15272;BME280;7737;51.578;7.268;2022-07-04T09:24:40;101263.59;;;21.70;75.32
15272;BME280;7737;51.578;7.268;2022-07-04T09:27:09;101271.25;;;21.65;75.61
15272;BME280;7737;51.578;7.268;2022-07-04T09:29:39;101257.78;;;21.54;74.53
15272;BME280;7737;51.578;7.268;2022-07-04T09:32:26;101261.19;;;21.76;73.79
15272;BME280;7737;51.578;7.268;2022-07-04T09:35:00;101243.09;;;21.77;71.67
15272;BME280;7737;51.578;7.268;2022-07-04T09:37:33;101256.94;;;22.44;71.94
15272;BME280;7737;51.578;7.268;2022-07-04T09:40:01;101239.09;;;21.71;70.01
15272;BME280;7737;51.578;7.268;2022-07-04T09:42:35;101251.22;;;22.37;71.06
15272;BME280;7737;51.578;7.268;2022-07-04T09:45:04;101247.13;;;22.53;70.69
15272;BME280;7737;51.578;7.268;2022-07-04T09:47:32;101244.91;;;22.77;69.81
15272;BME280;7737;51.578;7.268;2022-07-04T09:50:00;101231.41;;;22.47;69.11
15272;BME280;7737;51.578;7.268;2022-07-04T09:52:27;101243.66;;;22.41;70.84
15272;BME280;7737;51.578;7.268;2022-07-04T09:54:57;101234.63;;;22.80;69.44
15272;BME280;7737;51.578;7.268;2022-07-04T09:57:25;101229.19;;;22.80;68.29
15272;BME280;7737;51.578;7.268;2022-07-04T09:59:51;101249.06;;;22.71;68.82
15272;BME280;7737;51.578;7.268;2022-07-04T10:02:18;101221.06;;;23.47;66.73
15272;BME280;7737;51.578;7.268;2022-07-04T10:04:47;101183.50;;;23.24;63.23
15272;BME280;7737;51.578;7.268;2022-07-04T10:07:33;101191.19;;;23.47;63.08
15272;BME280;7737;51.578;7.268;2022-07-04T10:10:20;101183.47;;;23.33;61.69
15272;BME280;7737;51.578;7.268;2022-07-04T10:12:48;101194.47;;;23.51;63.59
15272;BME280;7737;51.578;7.268;2022-07-04T10:15:15;101177.97;;;23.62;61.49
15272;BME280;7737;51.578;7.268;2022-07-04T10:17:41;101192.13;;;23.66;63.26
15272;BME280;7737;51.578;7.268;2022-07-04T10:20:09;101189.03;;;24.42;61.90
15272;BME280;7737;51.578;7.268;2022-07-04T10:22:38;101153.31;;;23.36;58.55
15272;BME280;7737;51.578;7.268;2022-07-04T10:25:06;101198.59;;;23.36;63.08
15272;BME280;7737;51.578;7.268;2022-07-04T10:27:33;101198.91;;;23.42;62.54
15272;BME280;7737;51.578;7.268;2022-07-04T10:30:03;101165.44;;;23.61;59.67
15272;BME280;7737;51.578;7.268;2022-07-04T10:32:30;101184.06;;;24.73;61.81
15272;BME280;7737;51.578;7.268;2022-07-04T10:34:58;101157.59;;;24.57;58.90
15272;BME280;7737;51.578;7.268;2022-07-04T10:37:24;101153.13;;;24.21;58.40
15272;BME280;7737;51.578;7.268;2022-07-04T10:39:53;101148.97;;;23.16;57.98
15272;BME280;7737;51.578;7.268;2022-07-04T10:42:22;101162.31;;;23.46;59.45
15272;BME280;7737;51.578;7.268;2022-07-04T10:44:49;101150.38;;;24.03;58.46
15272;BME280;7737;51.578;7.268;2022-07-04T10:47:22;101158.72;;;24.19;59.46
15272;BME280;7737;51.578;7.268;2022-07-04T10:49:50;101160.91;;;23.79;59.25
15272;BME280;7737;51.578;7.268;2022-07-04T10:52:17;101169.66;;;23.73;60.23
15272;BME280;7737;51.578;7.268;2022-07-04T10:54:44;101163.47;;;23.81;59.88
15272;BME280;7737;51.578;7.268;2022-07-04T10:57:14;101148.91;;;23.45;59.01
15272;BME280;7737;51.578;7.268;2022-07-04T10:59:42;101139.09;;;23.71;58.20
15272;BME280;7737;51.578;7.268;2022-07-04T11:02:28;101131.78;;;24.44;57.95
15272;BME280;7737;51.578;7.268;2022-07-04T11:05:00;101133.19;;;24.03;57.05
15272;BME280;7737;51.578;7.268;2022-07-04T11:07:55;101123.84;;;25.29;56.61
15272;BME280;7737;51.578;7.268;2022-07-04T11:10:22;101123.84;;;25.29;56.90
15272;BME280;7737;51.578;7.268;2022-07-04T11:13:19;101096.56;;;25.21;54.63
15272;BME280;7737;51.578;7.268;2022-07-04T11:16:02;101103.44;;;24.81;54.80
15272;BME280;7737;51.578;7.268;2022-07-04T11:18:29;101098.59;;;24.93;54.57
15272;BME280;7737;51.578;7.268;2022-07-04T11:20:56;101092.00;;;24.96;54.38
15272;BME280;7737;51.578;7.268;2022-07-04T11:23:23;101105.28;;;25.50;55.85
15272;BME280;7737;51.578;7.268;2022-07-04T11:25:50;101070.19;;;24.52;53.61
15272;BME280;7737;51.578;7.268;2022-07-04T11:28:21;101096.94;;;25.00;54.61
15272;BME280;7737;51.578;7.268;2022-07-04T11:30:49;101082.78;;;25.90;53.44
15272;BME280;7737;51.578;7.268;2022-07-04T11:33:19;101057.66;;;25.54;51.71
15272;BME280;7737;51.578;7.268;2022-07-04T11:36:02;101058.53;;;25.71;51.29
15272;BME280;7737;51.578;7.268;2022-07-04T11:38:43;101035.53;;;25.57;50.28
15272;BME280;7737;51.578;7.268;2022-07-04T11:41:10;101081.50;;;25.34;53.49
15272;BME280;7737;51.578;7.268;2022-07-04T11:43:55;101081.13;;;24.78;53.29
15272;BME280;7737;51.578;7.268;2022-07-04T11:46:39;101074.00;;;25.54;52.80
15272;BME280;7737;51.578;7.268;2022-07-04T11:49:09;101062.94;;;26.14;52.03
15272;BME280;7737;51.578;7.268;2022-07-04T11:51:41;101032.84;;;25.65;50.09
15272;BME280;7737;51.578;7.268;2022-07-04T11:54:08;101034.97;;;26.03;49.96
15272;BME280;7737;51.578;7.268;2022-07-04T11:56:34;101033.66;;;26.88;49.91
15272;BME280;7737;51.578;7.268;2022-07-04T11:59:10;101026.16;;;26.82;49.10
15272;BME280;7737;51.578;7.268;2022-07-04T12:01:37;101019.00;;;26.57;48.74
15272;BME280;7737;51.578;7.268;2022-07-04T12:04:14;101000.06;;;25.99;47.48
15272;BME280;7737;51.578;7.268;2022-07-04T12:06:42;101053.44;;;26.26;51.56
15272;BME280;7737;51.578;7.268;2022-07-04T12:09:09;101044.16;;;27.24;49.57
15272;BME280;7737;51.578;7.268;2022-07-04T12:11:50;101007.03;;;26.98;46.89
15272;BME280;7737;51.578;7.268;2022-07-04T12:14:17;101015.91;;;27.78;47.64
15272;BME280;7737;51.578;7.268;2022-07-04T12:16:44;100976.97;;;28.29;45.13
15272;BME280;7737;51.578;7.268;2022-07-04T12:19:12;100968.09;;;28.27;44.85
15272;BME280;7737;51.578;7.268;2022-07-04T12:21:39;100947.66;;;28.38;43.97
15272;BME280;7737;51.578;7.268;2022-07-04T12:24:08;100960.59;;;27.53;44.74
15272;BME280;7737;51.578;7.268;2022-07-04T12:26:44;100968.44;;;27.79;45.37
15272;BME280;7737;51.578;7.268;2022-07-04T12:29:11;100955.44;;;27.81;44.29
15272;BME280;7737;51.578;7.268;2022-07-04T12:31:41;100975.22;;;27.60;45.39
15272;BME280;7737;51.578;7.268;2022-07-04T12:34:13;100984.81;;;28.32;45.83
15272;BME280;7737;51.578;7.268;2022-07-04T12:36:48;100989.38;;;28.92;45.65
15272;BME280;7737;51.578;7.268;2022-07-04T12:39:27;100949.63;;;27.84;43.48
15272;BME280;7737;51.578;7.268;2022-07-04T12:42:04;100948.75;;;28.81;43.92
15272;BME280;7737;51.578;7.268;2022-07-04T12:44:30;100986.69;;;28.09;46.67
15272;BME280;7737;51.578;7.268;2022-07-04T12:46:58;100986.75;;;28.24;45.77
15272;BME280;7737;51.578;7.268;2022-07-04T12:49:25;100947.53;;;28.69;43.41
15272;BME280;7737;51.578;7.268;2022-07-04T12:51:52;100945.81;;;27.40;43.26
15272;BME280;7737;51.578;7.268;2022-07-04T12:54:18;100959.53;;;27.15;44.40
15272;BME280;7737;51.578;7.268;2022-07-04T12:56:45;100946.56;;;26.54;43.83
15272;BME280;7737;51.578;7.268;2022-07-04T12:59:14;100953.72;;;26.07;44.87
15272;BME280;7737;51.578;7.268;2022-07-04T13:01:42;100981.13;;;26.94;46.56